createdAt,value
2022-10-15T00:00:18.209Z,100444.06
2022-10-15T00:02:46.008Z,100446.38
2022-10-15T00:05:13.745Z,100455.72
2022-10-15T00:07:42.132Z,100447.09
2022-10-15T00:10:10.128Z,100452.09
2022-10-15T00:12:37.854Z,100447.78
2022-10-15T00:15:08.152Z,100449.72
2022-10-15T00:17:36.550Z,100452.41
2022-10-15T00:20:05.468Z,100439.88
2022-10-15T00:22:33.492Z,100440.56
2022-10-15T00:25:01.296Z,100438.19
2022-10-15T00:27:29.119Z,100445.19
2022-10-15T00:29:56.917Z,100442.34
2022-10-15T00:32:26.242Z,100441.09
2022-10-15T00:34:54.200Z,100444.09
2022-10-15T00:37:22.351Z,100438.56
2022-10-15T00:39:50.192Z,100440.03
2022-10-15T00:42:18.547Z,100440.03
2022-10-15T00:44:51.465Z,100445.88
2022-10-15T00:47:25.097Z,100444.28
2022-10-15T00:49:59.993Z,100452.47
2022-10-15T00:52:34.001Z,100441.91
2022-10-15T00:55:06.905Z,100448.97
2022-10-15T00:57:35.549Z,100454.00
2022-10-15T01:00:09.074Z,100460.16
2022-10-15T01:02:36.855Z,100459.72
2022-10-15T01:05:07.272Z,100446.06
2022-10-15T01:07:35.176Z,100451.50
2022-10-15T01:10:04.366Z,100440.59
2022-10-15T01:12:44.407Z,100439.00
2022-10-15T01:15:20.168Z,100446.06
2022-10-15T01:17:51.748Z,100449.94
2022-10-15T01:20:51.303Z,100450.56
2022-10-15T01:24:03.655Z,100453.63
2022-10-15T01:27:16.484Z,100454.31
2022-10-15T01:30:23.965Z,100452.38
2022-10-15T01:33:05.775Z,100458.66
2022-10-15T01:35:44.333Z,100462.97
2022-10-15T01:38:24.662Z,100453.91
2022-10-15T01:40:56.387Z,100462.09
2022-10-15T01:43:30.154Z,100457.78
2022-10-15T01:46:03.175Z,100458.09
2022-10-15T01:48:35.786Z,100452.63
2022-10-15T01:51:07.082Z,100452.63
2022-10-15T01:53:37.234Z,100448.00
2022-10-15T01:56:09.325Z,100448.31
2022-10-15T01:58:41.072Z,100444.00
2022-10-15T02:01:09.325Z,100450.97
2022-10-15T02:03:47.355Z,100437.56
2022-10-15T02:06:22.770Z,100444.19
2022-10-15T02:09:02.506Z,100439.06
2022-10-15T02:11:33.247Z,100432.81
2022-10-15T02:14:08.355Z,100439.06
2022-10-15T02:16:41.237Z,100446.03
2022-10-15T02:19:16.812Z,100442.84
2022-10-15T02:21:49.107Z,100437.75
2022-10-15T02:24:21.410Z,100428.75
2022-10-15T02:26:52.411Z,100430.34
2022-10-15T02:29:23.561Z,100431.50
2022-10-15T02:31:52.715Z,100428.75
2022-10-15T02:34:26.794Z,100430.34
2022-10-15T02:36:55.776Z,100428.75
2022-10-15T02:39:25.257Z,100423.97
2022-10-15T02:41:54.602Z,100420.13
2022-10-15T02:44:22.914Z,100432.63
2022-10-15T02:46:50.646Z,100438.91
2022-10-15T02:49:18.507Z,100437.31
2022-10-15T02:51:47.644Z,100434.13
2022-10-15T02:54:15.472Z,100435.63
2022-10-15T02:56:43.235Z,100434.81
2022-10-15T02:59:11.012Z,100434.81
2022-10-15T03:01:38.800Z,100434.03
2022-10-15T03:04:06.947Z,100423.47
2022-10-15T03:06:34.675Z,100433.59
2022-10-15T03:09:05.951Z,100435.63
2022-10-15T03:11:36.494Z,100431.31
2022-10-15T03:14:04.271Z,100431.66
2022-10-15T03:16:32.024Z,100422.56
2022-10-15T03:18:59.796Z,100422.81
2022-10-15T03:21:30.990Z,100418.16
2022-10-15T03:23:58.789Z,100420.44
2022-10-15T03:26:28.284Z,100414.97
2022-10-15T03:28:56.124Z,100411.81
2022-10-15T03:31:23.948Z,100402.47
2022-10-15T03:33:51.720Z,100403.69
2022-10-15T03:36:19.544Z,100404.16
2022-10-15T03:38:47.282Z,100398.78
2022-10-15T03:41:15.101Z,100394.91
2022-10-15T03:43:44.215Z,100391.47
2022-10-15T03:46:11.992Z,100398.53
2022-10-15T03:48:39.996Z,100388.47
2022-10-15T03:51:07.753Z,100387.78
2022-10-15T03:53:35.502Z,100388.22
2022-10-15T03:56:07.466Z,100390.25
2022-10-15T03:58:35.319Z,100385.13
2022-10-15T04:01:09.687Z,100393.66
2022-10-15T04:03:37.889Z,100394.09
2022-10-15T04:06:06.164Z,100405.94
2022-10-15T04:08:34.063Z,100398.16
2022-10-15T04:11:01.922Z,100393.16
2022-10-15T04:13:30.223Z,100401.69
2022-10-15T04:15:57.964Z,100396.22
2022-10-15T04:18:27.596Z,100403.63
2022-10-15T04:20:55.425Z,100402.03
2022-10-15T04:23:23.273Z,100399.31
2022-10-15T04:25:51.012Z,100399.31
2022-10-15T04:28:18.933Z,100400.91
2022-10-15T04:30:46.773Z,100408.66
2022-10-15T04:33:14.587Z,100416.44
2022-10-15T04:35:43.735Z,100420.19
2022-10-15T04:38:11.535Z,100415.78
2022-10-15T04:40:39.321Z,100419.94
2022-10-15T04:43:07.074Z,100415.88
2022-10-15T04:45:34.833Z,100418.16
2022-10-15T04:48:02.570Z,100415.78
2022-10-15T04:50:30.302Z,100414.97
2022-10-15T04:53:00.659Z,100410.22
2022-10-15T04:55:28.437Z,100414.53
2022-10-15T04:57:56.211Z,100410.31
2022-10-15T05:00:27.014Z,100408.00
2022-10-15T05:02:54.794Z,100415.34
2022-10-15T05:05:22.548Z,100403.97
2022-10-15T05:07:50.310Z,100404.75
2022-10-15T05:10:19.489Z,100399.31
2022-10-15T05:12:48.545Z,100398.16
2022-10-15T05:15:18.159Z,100395.00
2022-10-15T05:17:45.957Z,100391.44
2022-10-15T05:20:13.705Z,100387.59
2022-10-15T05:22:41.524Z,100388.38
2022-10-15T05:25:10.273Z,100379.72
2022-10-15T05:27:39.472Z,100382.13
2022-10-15T05:30:08.021Z,100389.16
2022-10-15T05:32:35.800Z,100401.69
2022-10-15T05:35:03.768Z,100402.47
2022-10-15T05:37:31.542Z,100399.31
2022-10-15T05:39:59.349Z,100393.84
2022-10-15T05:42:27.116Z,100397.72
2022-10-15T05:44:56.301Z,100401.56
2022-10-15T05:47:24.284Z,100402.34
2022-10-15T05:49:52.226Z,100403.19
2022-10-15T05:52:20.121Z,100407.81
2022-10-15T05:54:48.021Z,100411.03
2022-10-15T05:57:15.789Z,100414.19
2022-10-15T05:59:43.593Z,100418.16
2022-10-15T06:02:16.095Z,100421.34
2022-10-15T06:04:44.133Z,100422.94
2022-10-15T06:07:11.983Z,100419.03
2022-10-15T06:09:39.741Z,100426.09
2022-10-15T06:12:07.522Z,100425.31
2022-10-15T06:14:35.284Z,100424.50
2022-10-15T06:17:03.077Z,100420.63
2022-10-15T06:19:32.241Z,100426.88
2022-10-15T06:22:00.010Z,100426.53
2022-10-15T06:24:27.852Z,100424.25
2022-10-15T06:26:55.604Z,100427.00
2022-10-15T06:29:23.432Z,100432.44
2022-10-15T06:31:51.502Z,100430.88
2022-10-15T06:34:19.281Z,100431.75
2022-10-15T06:36:48.435Z,100432.16
2022-10-15T06:39:16.380Z,100430.22
2022-10-15T06:41:44.183Z,100434.56
2022-10-15T06:44:11.972Z,100431.50
2022-10-15T06:46:39.733Z,100440.13
2022-10-15T06:49:07.491Z,100431.56
2022-10-15T06:51:35.277Z,100431.25
2022-10-15T06:54:04.674Z,100440.66
2022-10-15T06:56:32.446Z,100438.38
2022-10-15T06:59:00.251Z,100445.75
2022-10-15T07:01:28.668Z,100438.00
2022-10-15T07:03:56.436Z,100441.09
2022-10-15T07:06:25.645Z,100435.28
2022-10-15T07:08:53.421Z,100445.50
2022-10-15T07:11:25.716Z,100442.84
2022-10-15T07:13:53.523Z,100443.41
2022-10-15T07:16:21.432Z,100438.81
2022-10-15T07:18:49.709Z,100429.53
2022-10-15T07:21:17.629Z,100439.31
2022-10-15T07:23:45.396Z,100436.69
2022-10-15T07:26:13.557Z,100441.44
2022-10-15T07:28:42.722Z,100429.38
2022-10-15T07:31:10.741Z,100436.88
2022-10-15T07:33:43.760Z,100438.88
2022-10-15T07:36:13.517Z,100433.59
2022-10-15T07:38:41.331Z,100424.88
2022-10-15T07:41:10.885Z,100439.94
2022-10-15T07:43:39.083Z,100440.47
2022-10-15T07:46:08.356Z,100430.69
2022-10-15T07:48:36.182Z,100431.38
2022-10-15T07:51:06.237Z,100419.72
2022-10-15T07:53:35.125Z,100421.63
2022-10-15T07:56:04.599Z,100411.25
2022-10-15T07:58:34.646Z,100401.72
2022-10-15T08:01:02.933Z,100410.34
2022-10-15T08:03:32.304Z,100400.25
2022-10-15T08:06:01.836Z,100400.34
2022-10-15T08:08:29.750Z,100394.50
2022-10-15T08:10:57.831Z,100391.06
2022-10-15T08:13:25.966Z,100392.53
2022-10-15T08:15:56.355Z,100399.31
2022-10-15T08:18:27.606Z,100410.84
2022-10-15T08:21:00.321Z,100425.81
2022-10-15T08:23:28.560Z,100419.19
2022-10-15T08:25:58.523Z,100429.00
2022-10-15T08:28:26.353Z,100432.88
2022-10-15T08:30:54.442Z,100414.50
2022-10-15T08:33:22.270Z,100423.97
2022-10-15T08:35:50.097Z,100420.84
2022-10-15T08:38:19.951Z,100423.66
2022-10-15T08:40:49.846Z,100417.47
2022-10-15T08:43:23.707Z,100416.81
2022-10-15T08:45:55.006Z,100409.00
2022-10-15T08:48:29.505Z,100416.97
2022-10-15T08:51:02.894Z,100403.78
2022-10-15T08:53:39.580Z,100402.38
2022-10-15T08:56:16.932Z,100391.91
2022-10-15T08:58:52.151Z,100392.41
2022-10-15T09:01:29.438Z,100392.44
2022-10-15T09:04:08.134Z,100389.41
2022-10-15T09:06:38.516Z,100382.50
2022-10-15T09:09:17.761Z,100382.56
2022-10-15T09:11:56.895Z,100385.72
2022-10-15T09:14:31.144Z,100381.16
2022-10-15T09:17:02.504Z,100381.31
2022-10-15T09:19:32.364Z,100370.44
2022-10-15T09:22:02.842Z,100370.59
2022-10-15T09:24:35.250Z,100373.06
2022-10-15T09:27:09.919Z,100368.47
2022-10-15T09:29:43.369Z,100365.47
2022-10-15T09:32:20.154Z,100368.69
2022-10-15T09:34:54.457Z,100364.84
2022-10-15T09:37:29.634Z,100363.38
2022-10-15T09:40:23.327Z,100357.94
2022-10-15T09:42:53.044Z,100365.09
2022-10-15T09:45:24.058Z,100358.75
2022-10-15T09:47:52.142Z,100351.28
2022-10-15T09:50:20.041Z,100344.63
2022-10-15T09:53:01.932Z,100354.84
2022-10-15T09:55:38.237Z,100358.44
2022-10-15T09:58:09.754Z,100353.78
2022-10-15T10:00:59.730Z,100353.34
2022-10-15T10:03:29.230Z,100343.28
2022-10-15T10:06:09.286Z,100349.53
2022-10-15T10:08:40.235Z,100344.09
2022-10-15T10:11:11.625Z,100341.78
2022-10-15T10:13:45.627Z,100336.25
2022-10-15T10:16:18.416Z,100331.53
2022-10-15T10:19:03.661Z,100334.72
2022-10-15T10:21:33.022Z,100332.06
2022-10-15T10:24:20.607Z,100326.19
2022-10-15T10:26:49.957Z,100324.75
2022-10-15T10:29:33.551Z,100320.16
2022-10-15T10:32:01.645Z,100317.06
2022-10-15T10:34:31.600Z,100326.47
2022-10-15T10:37:03.461Z,100330.03
2022-10-15T10:39:33.543Z,100320.25
2022-10-15T10:42:05.359Z,100321.84
2022-10-15T10:44:34.911Z,100317.88
2022-10-15T10:47:13.802Z,100310.00
2022-10-15T10:49:44.056Z,100313.13
2022-10-15T10:52:29.051Z,100316.13
2022-10-15T10:55:02.336Z,100321.63
2022-10-15T10:57:41.553Z,100315.28
2022-10-15T11:00:15.281Z,100317.63
2022-10-15T11:02:44.116Z,100312.13
2022-10-15T11:05:12.645Z,100313.69
2022-10-15T11:07:48.634Z,100304.66
2022-10-15T11:10:23.237Z,100308.13
2022-10-15T11:13:07.793Z,100308.91
2022-10-15T11:15:46.301Z,100308.97
2022-10-15T11:18:31.714Z,100298.78
2022-10-15T11:21:09.238Z,100302.72
2022-10-15T11:23:52.539Z,100297.19
2022-10-15T11:26:46.039Z,100292.50
2022-10-15T11:29:28.705Z,100288.56
2022-10-15T11:32:14.645Z,100278.38
2022-10-15T11:34:59.553Z,100273.31
2022-10-15T11:37:42.281Z,100282.38
2022-10-15T11:40:21.892Z,100276.88
2022-10-15T11:42:56.342Z,100275.31
2022-10-15T11:45:48.928Z,100266.66
2022-10-15T11:48:23.341Z,100268.63
2022-10-15T11:50:57.567Z,100274.56
2022-10-15T11:53:38.220Z,100275.31
2022-10-15T11:56:12.039Z,100266.75
2022-10-15T11:58:45.035Z,100264.00
2022-10-15T12:01:20.802Z,100276.19
2022-10-15T12:03:54.898Z,100273.75
2022-10-15T12:06:27.121Z,100271.81
2022-10-15T12:08:57.856Z,100262.81
2022-10-15T12:11:39.368Z,100269.50
2022-10-15T12:14:14.729Z,100265.97
2022-10-15T12:16:52.702Z,100257.34
2022-10-15T12:19:23.115Z,100252.69
2022-10-15T12:22:09.587Z,100246.00
2022-10-15T12:24:58.170Z,100257.38
2022-10-15T12:27:37.772Z,100246.38
2022-10-15T12:30:23.729Z,100239.28
2022-10-15T12:32:53.265Z,100239.34
2022-10-15T12:35:24.994Z,100233.94
2022-10-15T12:37:53.241Z,100239.06
2022-10-15T12:40:31.775Z,100230.09
2022-10-15T12:43:02.543Z,100233.72
2022-10-15T12:45:39.999Z,100230.94
2022-10-15T12:48:29.859Z,100237.22
2022-10-15T12:51:31.943Z,100224.63
2022-10-15T12:54:00.865Z,100221.19
2022-10-15T12:56:39.349Z,100231.81
2022-10-15T12:59:31.840Z,100223.59
2022-10-15T13:01:59.746Z,100224.03
2022-10-15T13:04:40.772Z,100228.00
2022-10-15T13:07:15.337Z,100226.47
2022-10-15T13:09:43.225Z,100225.72
2022-10-15T13:12:24.054Z,100237.50
2022-10-15T13:14:59.167Z,100236.34
2022-10-15T13:17:27.352Z,100227.34
2022-10-15T13:19:59.232Z,100233.63
2022-10-15T13:22:29.246Z,100226.56
2022-10-15T13:24:57.841Z,100227.38
2022-10-15T13:27:27.486Z,100229.34
2022-10-15T13:29:57.684Z,100228.97
2022-10-15T13:32:27.059Z,100227.38
2022-10-15T13:34:57.538Z,100223.09
2022-10-15T13:37:31.848Z,100216.38
2022-10-15T13:40:03.197Z,100230.19
2022-10-15T13:42:34.967Z,100230.19
2022-10-15T13:45:05.600Z,100216.41
2022-10-15T13:47:35.614Z,100221.13
2022-10-15T13:50:18.309Z,100224.28
2022-10-15T13:52:49.583Z,100224.69
2022-10-15T13:55:25.926Z,100215.59
2022-10-15T13:57:59.007Z,100217.97
2022-10-15T14:00:30.429Z,100217.97
2022-10-15T14:03:09.480Z,100228.19
2022-10-15T14:05:38.619Z,100215.19
2022-10-15T14:08:06.763Z,100220.31
2022-10-15T14:10:34.568Z,100224.25
2022-10-15T14:13:02.405Z,100221.09
2022-10-15T14:15:54.505Z,100222.66
2022-10-15T14:18:31.639Z,100225.81
2022-10-15T14:21:01.801Z,100225.81
2022-10-15T14:23:30.136Z,100223.44
2022-10-15T14:25:59.875Z,100234.41
2022-10-15T14:28:29.297Z,100236.38
2022-10-15T14:30:57.921Z,100239.94
2022-10-15T14:33:34.156Z,100239.13
2022-10-15T14:36:09.566Z,100245.38
2022-10-15T14:38:37.589Z,100252.47
2022-10-15T14:41:09.339Z,100262.66
2022-10-15T14:43:38.748Z,100262.25
2022-10-15T14:46:08.845Z,100268.94
2022-10-15T14:48:38.764Z,100276.03
2022-10-15T14:51:13.851Z,100279.94
2022-10-15T14:53:46.700Z,100274.44
2022-10-15T14:56:18.438Z,100270.91
2022-10-15T14:58:52.083Z,100267.00
2022-10-15T15:01:21.524Z,100267.00
2022-10-15T15:03:52.443Z,100268.19
2022-10-15T15:06:21.669Z,100273.69
2022-10-15T15:08:49.787Z,100278.41
2022-10-15T15:11:22.090Z,100286.31
2022-10-15T15:13:51.513Z,100296.50
2022-10-15T15:16:19.590Z,100291.38
2022-10-15T15:18:48.751Z,100287.84
2022-10-15T15:21:20.091Z,100283.91
2022-10-15T15:23:50.029Z,100290.22
2022-10-15T15:26:17.969Z,100279.22
2022-10-15T15:28:45.861Z,100283.94
2022-10-15T15:31:17.642Z,100294.97
2022-10-15T15:33:45.775Z,100302.84
2022-10-15T15:36:18.992Z,100305.97
2022-10-15T15:38:51.921Z,100297.31
2022-10-15T15:41:21.225Z,100297.31
2022-10-15T15:43:53.501Z,100305.91
2022-10-15T15:46:36.570Z,100309.75
2022-10-15T15:49:04.413Z,100306.63
2022-10-15T15:54:17.192Z,100321.13
2022-10-15T15:56:56.155Z,100319.16
2022-10-15T15:59:31.652Z,100323.81
2022-10-15T16:02:06.720Z,100323.81
2022-10-15T16:04:46.833Z,100330.84
2022-10-15T16:07:30.560Z,100341.47
2022-10-15T16:10:06.812Z,100345.75
2022-10-15T16:12:40.256Z,100360.66
2022-10-15T16:15:14.699Z,100357.53
2022-10-15T16:17:43.735Z,100355.91
2022-10-15T16:20:14.298Z,100367.69
2022-10-15T16:22:55.248Z,100373.13
2022-10-15T16:25:37.112Z,100376.28
2022-10-15T16:28:13.881Z,100369.97
2022-10-15T16:30:45.160Z,100377.81
2022-10-15T16:33:19.293Z,100386.81
2022-10-15T16:36:01.683Z,100387.94
2022-10-15T16:38:41.761Z,100402.78
2022-10-15T16:41:16.306Z,100412.53
2022-10-15T16:43:48.035Z,100411.28
2022-10-15T16:46:20.157Z,100427.72
2022-10-15T16:48:55.662Z,100428.44
2022-10-15T16:51:35.645Z,100434.69
2022-10-15T16:54:15.102Z,100432.69
2022-10-15T16:56:52.742Z,100429.09
2022-10-15T16:59:27.887Z,100451.88
2022-10-15T17:01:58.568Z,100444.00
2022-10-15T17:04:26.855Z,100458.16
2022-10-15T17:06:54.981Z,100468.41
2022-10-15T17:09:23.902Z,100470.78
2022-10-15T17:11:53.808Z,100485.69
2022-10-15T17:14:29.069Z,100484.06
2022-10-15T17:16:57.376Z,100487.97
2022-10-15T17:19:30.393Z,100501.72
2022-10-15T17:22:02.882Z,100498.97
2022-10-15T17:24:37.130Z,100509.09
2022-10-15T17:27:07.154Z,100503.94
2022-10-15T17:29:35.279Z,100509.44
2022-10-15T17:32:22.624Z,100516.91
2022-10-15T17:35:05.168Z,100529.38
2022-10-15T17:40:01.114Z,100537.13
2022-10-15T17:42:37.050Z,100545.75
2022-10-15T17:45:07.792Z,100563.03
2022-10-15T17:47:40.947Z,100570.84
2022-10-15T17:50:17.727Z,100558.16
2022-10-15T17:52:51.191Z,100557.31
2022-10-15T17:55:19.471Z,100565.03
2022-10-15T17:57:55.552Z,100568.00
2022-10-15T18:00:23.762Z,100573.03
2022-10-15T18:03:14.177Z,100577.97
2022-10-15T18:05:45.586Z,100581.88
2022-10-15T18:08:20.884Z,100585.75
2022-10-15T18:11:10.839Z,100590.28
2022-10-15T18:13:40.561Z,100593.31
2022-10-15T18:16:12.364Z,100597.16
2022-10-15T18:19:12.874Z,100589.16
2022-10-15T18:21:48.687Z,100585.25
2022-10-15T18:24:24.435Z,100586.00
2022-10-15T18:27:04.170Z,100593.38
2022-10-15T18:29:36.006Z,100597.28
2022-10-15T18:32:10.872Z,100590.50
2022-10-15T18:34:38.962Z,100591.09
2022-10-15T18:37:07.184Z,100594.97
2022-10-15T18:39:37.710Z,100605.09
2022-10-15T18:42:10.925Z,100600.31
2022-10-15T18:44:42.214Z,100603.28
2022-10-15T18:47:17.976Z,100602.34
2022-10-15T18:49:52.454Z,100612.47
2022-10-15T18:52:38.862Z,100617.06
2022-10-15T18:55:11.485Z,100613.44
2022-10-15T18:57:51.057Z,100620.88
2022-10-15T19:00:26.842Z,100615.34
2022-10-15T19:02:58.111Z,100611.72
2022-10-15T19:05:33.550Z,100612.00
2022-10-15T19:08:06.577Z,100615.03
2022-10-15T19:10:44.797Z,100615.72
2022-10-15T19:13:41.206Z,100611.22
2022-10-15T19:16:13.441Z,100617.31
2022-10-15T19:18:49.215Z,100624.75
2022-10-15T19:21:24.915Z,100632.13
2022-10-15T19:23:55.576Z,100617.63
2022-10-15T19:26:33.645Z,100623.91
2022-10-15T19:29:07.156Z,100643.50
2022-10-15T19:31:41.455Z,100644.22
2022-10-15T19:34:14.049Z,100651.56
2022-10-15T19:36:44.680Z,100644.91
2022-10-15T19:39:22.339Z,100648.09
2022-10-15T19:42:07.749Z,100640.34
2022-10-15T19:44:50.855Z,100650.41
2022-10-15T19:47:29.241Z,100640.59
2022-10-15T19:50:00.999Z,100638.66
2022-10-15T19:52:55.309Z,100650.81
2022-10-15T19:55:29.336Z,100643.34
2022-10-15T19:57:57.915Z,100645.72
2022-10-15T20:00:29.692Z,100638.66
2022-10-15T20:03:00.466Z,100656.66
2022-10-15T20:05:30.769Z,100650.03
2022-10-15T20:08:25.013Z,100646.50
2022-10-15T20:11:02.632Z,100659.03
2022-10-15T20:13:32.997Z,100659.03
2022-10-15T20:16:07.809Z,100662.16
2022-10-15T20:18:47.627Z,100665.59
2022-10-15T20:21:27.032Z,100668.97
2022-10-15T20:24:05.631Z,100671.28
2022-10-15T20:26:41.539Z,100682.91
2022-10-15T20:29:14.405Z,100687.25
2022-10-15T20:31:49.513Z,100692.28
2022-10-15T20:34:20.385Z,100682.66
2022-10-15T20:37:08.848Z,100684.63
2022-10-15T20:42:30.575Z,100683.28
2022-10-15T20:45:02.667Z,100682.03
2022-10-15T20:47:33.045Z,100694.22
2022-10-15T20:50:30.273Z,100701.97
2022-10-15T20:53:01.373Z,100720.63
2022-10-15T20:55:37.991Z,100711.16
2022-10-15T20:58:09.721Z,100714.25
2022-10-15T21:01:04.733Z,100710.28
2022-10-15T21:03:35.955Z,100706.75
2022-10-15T21:06:20.764Z,100718.03
2022-10-15T21:08:58.351Z,100729.81
2022-10-15T21:11:29.491Z,100724.66
2022-10-15T21:13:57.865Z,100725.72
2022-10-15T21:19:11.345Z,100730.31
2022-10-15T21:21:48.623Z,100731.81
2022-10-15T21:24:30.437Z,100734.06
2022-10-15T21:27:03.835Z,100746.63
2022-10-15T21:29:40.243Z,100745.03
2022-10-15T21:32:08.464Z,100750.50
2022-10-15T21:34:42.548Z,100752.78
2022-10-15T21:37:37.648Z,100757.81
2022-10-15T21:40:09.949Z,100760.56
2022-10-15T21:42:51.719Z,100767.63
2022-10-15T21:45:27.367Z,100765.13
2022-10-15T21:48:09.466Z,100766.72
2022-10-15T21:50:40.994Z,100765.59
2022-10-15T21:53:15.342Z,100770.00
2022-10-15T21:56:14.757Z,100773.53
2022-10-15T21:58:45.347Z,100774.31
2022-10-15T22:01:19.979Z,100775.59
2022-10-15T22:03:48.850Z,100778.75
2022-10-15T22:06:37.253Z,100774.44
2022-10-15T22:09:08.305Z,100777.16
2022-10-15T22:11:46.338Z,100767.38
2022-10-15T22:14:17.323Z,100762.34
2022-10-15T22:16:45.205Z,100767.81
2022-10-15T22:19:16.143Z,100769.84
2022-10-15T22:21:44.379Z,100776.47
2022-10-15T22:24:17.092Z,100776.47
2022-10-15T22:26:46.805Z,100779.56
2022-10-15T22:29:19.836Z,100779.19
2022-10-15T22:31:47.800Z,100776.94
2022-10-15T22:34:15.573Z,100771.09
2022-10-15T22:36:43.551Z,100770.31
2022-10-15T22:39:15.174Z,100770.31
2022-10-15T22:41:45.283Z,100772.56
2022-10-15T22:44:15.895Z,100778.06
2022-10-15T22:46:46.238Z,100778.75
2022-10-15T22:49:15.092Z,100777.84
2022-10-15T22:51:43.286Z,100773.09
2022-10-15T22:54:11.119Z,100768.31
2022-10-15T22:56:40.249Z,100771.84
2022-10-15T23:01:37.449Z,100781.53
2022-10-15T23:04:07.333Z,100782.25
2022-10-15T23:06:36.929Z,100784.06
2022-10-15T23:09:06.279Z,100787.94
2022-10-15T23:11:35.715Z,100783.19
2022-10-15T23:14:06.838Z,100781.13
2022-10-15T23:16:37.725Z,100783.44
2022-10-15T23:19:07.061Z,100785.56
2022-10-15T23:21:36.685Z,100794.13
2022-10-15T23:24:05.668Z,100783.41
2022-10-15T23:26:35.389Z,100785.72
2022-10-15T23:29:05.795Z,100781.38
2022-10-15T23:31:35.633Z,100774.34
2022-10-15T23:34:04.983Z,100785.94
2022-10-15T23:36:33.285Z,100788.69
2022-10-15T23:39:03.680Z,100791.75
2022-10-15T23:41:31.944Z,100794.50
2022-10-15T23:44:00.325Z,100797.59
2022-10-15T23:46:29.462Z,100796.34
2022-10-15T23:48:57.400Z,100792.34
2022-10-15T23:51:26.878Z,100784.41
2022-10-15T23:53:56.233Z,100791.34
2022-10-15T23:56:24.695Z,100794.88
2022-10-15T23:58:53.729Z,100796.00
